sensor_id;sensor_type;location;lat;lon;timestamp;pressure;altitude;pressure_sealevel;temperature;humidity
36748;BME280;22716;51.556;5.080;2023-07-16T00:01:08;100209.97;;;18.99;81.85
36748;BME280;22716;51.556;5.080;2023-07-16T00:03:37;100212.88;;;18.94;81.68
36748;BME280;22716;51.556;5.080;2023-07-16T00:06:08;100210.47;;;18.90;82.11
36748;BME280;22716;51.556;5.080;2023-07-16T00:08:37;100212.50;;;18.85;82.29
36748;BME280;22716;51.556;5.080;2023-07-16T00:11:07;100208.22;;;18.82;82.20
36748;BME280;22716;51.556;5.080;2023-07-16T00:13:36;100212.31;;;18.72;82.52
36748;BME280;22716;51.556;5.080;2023-07-16T00:16:07;100213.25;;;18.71;82.86
36748;BME280;22716;51.556;5.080;2023-07-16T00:18:35;100209.13;;;18.66;83.10
36748;BME280;22716;51.556;5.080;2023-07-16T00:21:04;100216.34;;;18.64;83.40
36748;BME280;22716;51.556;5.080;2023-07-16T00:23:35;100219.16;;;18.61;83.70
36748;BME280;22716;51.556;5.080;2023-07-16T00:26:04;100206.22;;;18.55;84.11
36748;BME280;22716;51.556;5.080;2023-07-16T00:28:32;100218.34;;;18.59;83.85
36748;BME280;22716;51.556;5.080;2023-07-16T00:31:01;100216.72;;;18.56;83.72
36748;BME280;22716;51.556;5.080;2023-07-16T00:33:30;100200.47;;;18.45;83.98
36748;BME280;22716;51.556;5.080;2023-07-16T00:35:58;100212.44;;;18.54;84.07
36748;BME280;22716;51.556;5.080;2023-07-16T00:38:27;100220.50;;;18.52;84.08
36748;BME280;22716;51.556;5.080;2023-07-16T00:40:59;100228.34;;;18.54;84.26
36748;BME280;22716;51.556;5.080;2023-07-16T00:43:28;100229.97;;;18.56;84.67
36748;BME280;22716;51.556;5.080;2023-07-16T00:45:57;100223.06;;;18.54;84.86
36748;BME280;22716;51.556;5.080;2023-07-16T00:48:26;100230.16;;;18.53;84.58
36748;BME280;22716;51.556;5.080;2023-07-16T00:50:55;100222.13;;;18.55;84.80
36748;BME280;22716;51.556;5.080;2023-07-16T00:53:24;100224.13;;;18.50;84.86
36748;BME280;22716;51.556;5.080;2023-07-16T00:55:53;100230.31;;;18.50;85.09
36748;BME280;22716;51.556;5.080;2023-07-16T00:58:25;100227.94;;;18.44;85.14
36748;BME280;22716;51.556;5.080;2023-07-16T01:00:54;100232.38;;;18.43;85.58
36748;BME280;22716;51.556;5.080;2023-07-16T01:03:22;100232.63;;;18.39;85.85
36748;BME280;22716;51.556;5.080;2023-07-16T01:05:57;100236.38;;;18.35;85.55
36748;BME280;22716;51.556;5.080;2023-07-16T01:08:49;100228.41;;;18.35;86.43
36748;BME280;22716;51.556;5.080;2023-07-16T01:11:41;100230.06;;;18.37;86.33
36748;BME280;22716;51.556;5.080;2023-07-16T01:14:27;100223.81;;;18.38;86.47
36748;BME280;22716;51.556;5.080;2023-07-16T01:17:08;100225.00;;;18.33;86.02
36748;BME280;22716;51.556;5.080;2023-07-16T01:19:44;100221.41;;;18.34;86.05
36748;BME280;22716;51.556;5.080;2023-07-16T01:22:35;100213.53;;;18.32;86.82
36748;BME280;22716;51.556;5.080;2023-07-16T01:25:32;100217.97;;;18.32;87.22
36748;BME280;22716;51.556;5.080;2023-07-16T01:28:14;100210.25;;;18.27;87.19
36748;BME280;22716;51.556;5.080;2023-07-16T01:30:48;100210.31;;;18.26;87.50
36748;BME280;22716;51.556;5.080;2023-07-16T01:33:19;100222.91;;;18.22;87.34
36748;BME280;22716;51.556;5.080;2023-07-16T01:35:48;100232.81;;;18.19;88.10
36748;BME280;22716;51.556;5.080;2023-07-16T01:38:18;100222.50;;;18.13;88.85
36748;BME280;22716;51.556;5.080;2023-07-16T01:40:48;100233.19;;;18.11;89.06
36748;BME280;22716;51.556;5.080;2023-07-16T01:43:17;100236.00;;;18.08;89.59
36748;BME280;22716;51.556;5.080;2023-07-16T01:45:48;100230.94;;;18.04;90.08
36748;BME280;22716;51.556;5.080;2023-07-16T01:48:27;100242.59;;;18.00;90.15
36748;BME280;22716;51.556;5.080;2023-07-16T01:50:59;100232.31;;;17.93;90.57
36748;BME280;22716;51.556;5.080;2023-07-16T01:53:27;100228.84;;;17.93;90.96
36748;BME280;22716;51.556;5.080;2023-07-16T01:55:57;100224.59;;;17.89;92.31
36748;BME280;22716;51.556;5.080;2023-07-16T01:58:26;100224.75;;;17.86;92.37
36748;BME280;22716;51.556;5.080;2023-07-16T02:00:58;100221.50;;;17.81;92.72
36748;BME280;22716;51.556;5.080;2023-07-16T02:03:27;100215.47;;;17.77;93.17
36748;BME280;22716;51.556;5.080;2023-07-16T02:05:55;100213.91;;;17.73;94.16
36748;BME280;22716;51.556;5.080;2023-07-16T02:08:24;100223.66;;;17.73;94.39
36748;BME280;22716;51.556;5.080;2023-07-16T02:10:52;100216.66;;;17.72;95.09
36748;BME280;22716;51.556;5.080;2023-07-16T02:13:22;100219.50;;;17.67;95.08
36748;BME280;22716;51.556;5.080;2023-07-16T02:15:51;100216.47;;;17.58;95.96
36748;BME280;22716;51.556;5.080;2023-07-16T02:18:23;100214.16;;;17.50;97.55
36748;BME280;22716;51.556;5.080;2023-07-16T02:20:52;100220.44;;;17.48;97.95
36748;BME280;22716;51.556;5.080;2023-07-16T02:23:20;100224.88;;;17.47;98.44
36748;BME280;22716;51.556;5.080;2023-07-16T02:25:49;100221.84;;;17.38;99.07
36748;BME280;22716;51.556;5.080;2023-07-16T02:28:17;100221.31;;;17.29;100.00
36748;BME280;22716;51.556;5.080;2023-07-16T02:30:46;100225.63;;;17.32;100.00
36748;BME280;22716;51.556;5.080;2023-07-16T02:33:14;100216.13;;;17.28;100.00
36748;BME280;22716;51.556;5.080;2023-07-16T02:35:49;100218.63;;;17.31;100.00
36748;BME280;22716;51.556;5.080;2023-07-16T02:38:18;100230.84;;;17.33;99.42
36748;BME280;22716;51.556;5.080;2023-07-16T02:40:48;100235.38;;;17.31;99.42
36748;BME280;22716;51.556;5.080;2023-07-16T02:43:16;100234.28;;;17.35;99.36
36748;BME280;22716;51.556;5.080;2023-07-16T02:45:45;100239.66;;;17.34;99.33
36748;BME280;22716;51.556;5.080;2023-07-16T02:48:14;100241.34;;;17.35;98.34
36748;BME280;22716;51.556;5.080;2023-07-16T02:50:42;100244.97;;;17.34;99.27
36748;BME280;22716;51.556;5.080;2023-07-16T02:53:14;100244.97;;;17.34;97.98
36748;BME280;22716;51.556;5.080;2023-07-16T02:55:45;100245.72;;;17.36;98.63
36748;BME280;22716;51.556;5.080;2023-07-16T02:58:14;100238.72;;;17.35;98.38
36748;BME280;22716;51.556;5.080;2023-07-16T03:00:43;100246.59;;;17.36;97.54
36748;BME280;22716;51.556;5.080;2023-07-16T03:03:12;100248.31;;;17.38;97.54
36748;BME280;22716;51.556;5.080;2023-07-16T03:05:40;100245.53;;;17.41;97.20
36748;BME280;22716;51.556;5.080;2023-07-16T03:08:09;100254.41;;;17.40;98.24
36748;BME280;22716;51.556;5.080;2023-07-16T03:10:40;100247.50;;;17.35;98.91
36748;BME280;22716;51.556;5.080;2023-07-16T03:13:09;100246.94;;;17.29;98.74
36748;BME280;22716;51.556;5.080;2023-07-16T03:15:37;100251.41;;;17.28;99.76
36748;BME280;22716;51.556;5.080;2023-07-16T03:18:06;100254.75;;;17.32;100.00
36748;BME280;22716;51.556;5.080;2023-07-16T03:20:35;100251.25;;;17.31;100.00
36748;BME280;22716;51.556;5.080;2023-07-16T03:23:03;100253.19;;;17.28;99.93
36748;BME280;22716;51.556;5.080;2023-07-16T03:25:32;100255.88;;;17.26;100.00
36748;BME280;22716;51.556;5.080;2023-07-16T03:28:03;100257.84;;;17.23;100.00
36748;BME280;22716;51.556;5.080;2023-07-16T03:30:32;100268.22;;;17.27;99.84
36748;BME280;22716;51.556;5.080;2023-07-16T03:33:03;100249.75;;;17.26;100.00
36748;BME280;22716;51.556;5.080;2023-07-16T03:35:31;100268.22;;;17.27;99.09
36748;BME280;22716;51.556;5.080;2023-07-16T03:38:00;100264.69;;;17.27;99.09
36748;BME280;22716;51.556;5.080;2023-07-16T03:40:29;100272.78;;;17.24;99.35
36748;BME280;22716;51.556;5.080;2023-07-16T03:42:58;100272.19;;;17.17;98.24
36748;BME280;22716;51.556;5.080;2023-07-16T03:45:29;100281.00;;;17.18;97.42
36748;BME280;22716;51.556;5.080;2023-07-16T03:47:58;100286.25;;;17.19;97.58
36748;BME280;22716;51.556;5.080;2023-07-16T03:50:26;100292.31;;;17.21;96.98
36748;BME280;22716;51.556;5.080;2023-07-16T03:52:55;100282.00;;;17.15;96.06
36748;BME280;22716;51.556;5.080;2023-07-16T03:55:24;100289.81;;;17.18;96.01
36748;BME280;22716;51.556;5.080;2023-07-16T03:57:52;100289.94;;;17.15;94.87
36748;BME280;22716;51.556;5.080;2023-07-16T04:00:22;100298.66;;;17.17;93.98
36748;BME280;22716;51.556;5.080;2023-07-16T04:02:54;100293.38;;;17.17;94.08
36748;BME280;22716;51.556;5.080;2023-07-16T04:05:22;100281.50;;;17.07;94.22
36748;BME280;22716;51.556;5.080;2023-07-16T04:07:51;100298.91;;;17.13;93.58
36748;BME280;22716;51.556;5.080;2023-07-16T04:10:20;100300.53;;;17.15;93.16
36748;BME280;22716;51.556;5.080;2023-07-16T04:12:48;100297.16;;;17.12;92.86
36748;BME280;22716;51.556;5.080;2023-07-16T04:15:17;100310.41;;;17.12;92.46
36748;BME280;22716;51.556;5.080;2023-07-16T04:17:46;100310.41;;;17.12;91.64
36748;BME280;22716;51.556;5.080;2023-07-16T04:20:17;100321.81;;;17.14;91.72
36748;BME280;22716;51.556;5.080;2023-07-16T04:22:46;100312.00;;;17.16;91.66
36748;BME280;22716;51.556;5.080;2023-07-16T04:25:14;100317.06;;;17.20;90.67
36748;BME280;22716;51.556;5.080;2023-07-16T04:27:44;100312.63;;;17.21;90.57
36748;BME280;22716;51.556;5.080;2023-07-16T04:30:13;100324.09;;;17.21;90.29
36748;BME280;22716;51.556;5.080;2023-07-16T04:32:42;100326.44;;;17.27;89.45
36748;BME280;22716;51.556;5.080;2023-07-16T04:35:10;100327.31;;;17.28;89.15
36748;BME280;22716;51.556;5.080;2023-07-16T04:37:41;100334.25;;;17.30;89.02
36748;BME280;22716;51.556;5.080;2023-07-16T04:40:11;100334.13;;;17.33;88.64
36748;BME280;22716;51.556;5.080;2023-07-16T04:42:39;100336.47;;;17.40;88.51
36748;BME280;22716;51.556;5.080;2023-07-16T04:45:08;100334.47;;;17.45;87.04
36748;BME280;22716;51.556;5.080;2023-07-16T04:47:37;100338.75;;;17.47;87.19
36748;BME280;22716;51.556;5.080;2023-07-16T04:50:06;100342.22;;;17.49;86.51
36748;BME280;22716;51.556;5.080;2023-07-16T04:52:35;100349.94;;;17.54;86.48
36748;BME280;22716;51.556;5.080;2023-07-16T04:55:07;100353.13;;;17.62;86.68
36748;BME280;22716;51.556;5.080;2023-07-16T04:57:36;100364.38;;;17.67;85.73
36748;BME280;22716;51.556;5.080;2023-07-16T05:00:06;100361.59;;;17.70;85.35
36748;BME280;22716;51.556;5.080;2023-07-16T05:02:36;100365.72;;;17.75;85.87
36748;BME280;22716;51.556;5.080;2023-07-16T05:05:06;100372.38;;;17.84;85.19
36748;BME280;22716;51.556;5.080;2023-07-16T05:07:35;100349.25;;;17.87;84.25
36748;BME280;22716;51.556;5.080;2023-07-16T05:10:07;100377.47;;;18.24;83.18
36748;BME280;22716;51.556;5.080;2023-07-16T05:12:36;100367.13;;;18.37;83.22
36748;BME280;22716;51.556;5.080;2023-07-16T05:15:06;100370.66;;;18.37;83.01
36748;BME280;22716;51.556;5.080;2023-07-16T05:17:35;100369.97;;;18.15;83.23
36748;BME280;22716;51.556;5.080;2023-07-16T05:20:05;100378.38;;;18.06;84.14
36748;BME280;22716;51.556;5.080;2023-07-16T05:22:35;100369.78;;;18.01;83.98
36748;BME280;22716;51.556;5.080;2023-07-16T05:25:08;100378.81;;;17.97;84.41
36748;BME280;22716;51.556;5.080;2023-07-16T05:27:37;100381.44;;;17.97;84.97
36748;BME280;22716;51.556;5.080;2023-07-16T05:30:08;100386.47;;;18.03;84.56
36748;BME280;22716;51.556;5.080;2023-07-16T05:32:36;100387.19;;;18.07;84.84
36748;BME280;22716;51.556;5.080;2023-07-16T05:35:06;100387.13;;;18.08;84.77
36748;BME280;22716;51.556;5.080;2023-07-16T05:37:35;100388.53;;;18.15;84.40
36748;BME280;22716;51.556;5.080;2023-07-16T05:40:07;100391.91;;;18.19;84.73
36748;BME280;22716;51.556;5.080;2023-07-16T05:42:36;100394.31;;;18.23;84.67
36748;BME280;22716;51.556;5.080;2023-07-16T05:45:06;100393.00;;;18.32;83.96
36748;BME280;22716;51.556;5.080;2023-07-16T05:47:34;100394.88;;;18.49;84.00
36748;BME280;22716;51.556;5.080;2023-07-16T05:50:04;100392.63;;;18.75;82.81
36748;BME280;22716;51.556;5.080;2023-07-16T05:52:33;100400.41;;;18.95;81.76
36748;BME280;22716;51.556;5.080;2023-07-16T05:55:02;100393.31;;;18.96;81.34
36748;BME280;22716;51.556;5.080;2023-07-16T05:57:34;100404.16;;;18.91;81.88
36748;BME280;22716;51.556;5.080;2023-07-16T06:00:04;100400.13;;;18.84;81.62
36748;BME280;22716;51.556;5.080;2023-07-16T06:02:34;100400.50;;;18.77;81.75
36748;BME280;22716;51.556;5.080;2023-07-16T06:05:04;100394.16;;;18.79;82.00
36748;BME280;22716;51.556;5.080;2023-07-16T06:07:33;100389.50;;;18.84;81.64
36748;BME280;22716;51.556;5.080;2023-07-16T06:10:01;100396.44;;;18.87;81.45
36748;BME280;22716;51.556;5.080;2023-07-16T06:12:30;100390.81;;;18.93;81.64
36748;BME280;22716;51.556;5.080;2023-07-16T06:15:03;100404.16;;;18.91;81.05
36748;BME280;22716;51.556;5.080;2023-07-16T06:17:32;100397.91;;;18.92;81.48
36748;BME280;22716;51.556;5.080;2023-07-16T06:20:01;100407.19;;;19.01;81.54
36748;BME280;22716;51.556;5.080;2023-07-16T06:22:30;100404.22;;;19.07;81.14
36748;BME280;22716;51.556;5.080;2023-07-16T06:24:58;100412.75;;;19.14;81.05
36748;BME280;22716;51.556;5.080;2023-07-16T06:27:27;100412.06;;;19.26;80.35
36748;BME280;22716;51.556;5.080;2023-07-16T06:29:56;100415.44;;;19.29;79.95
36748;BME280;22716;51.556;5.080;2023-07-16T06:32:28;100416.69;;;19.39;79.66
36748;BME280;22716;51.556;5.080;2023-07-16T06:34:56;100422.56;;;19.62;79.89
36748;BME280;22716;51.556;5.080;2023-07-16T06:37:25;100420.66;;;19.81;78.43
36748;BME280;22716;51.556;5.080;2023-07-16T06:39:53;100415.94;;;20.01;78.02
36748;BME280;22716;51.556;5.080;2023-07-16T06:42:22;100428.63;;;20.12;77.25
36748;BME280;22716;51.556;5.080;2023-07-16T06:44:50;100431.38;;;19.95;77.60
36748;BME280;22716;51.556;5.080;2023-07-16T06:47:19;100439.94;;;19.84;78.54
36748;BME280;22716;51.556;5.080;2023-07-16T06:49:50;100445.34;;;19.83;79.11
36748;BME280;22716;51.556;5.080;2023-07-16T06:52:19;100450.75;;;19.81;78.87
36748;BME280;22716;51.556;5.080;2023-07-16T06:54:50;100448.00;;;19.83;78.94
36748;BME280;22716;51.556;5.080;2023-07-16T06:57:18;100461.13;;;19.86;78.74
36748;BME280;22716;51.556;5.080;2023-07-16T06:59:47;100466.88;;;19.94;79.09
36748;BME280;22716;51.556;5.080;2023-07-16T07:02:16;100461.44;;;19.80;78.77
36748;BME280;22716;51.556;5.080;2023-07-16T07:04:45;100467.19;;;19.88;78.80
36748;BME280;22716;51.556;5.080;2023-07-16T07:07:16;100458.94;;;19.77;79.18
36748;BME280;22716;51.556;5.080;2023-07-16T07:09:47;100461.53;;;19.78;78.55
36748;BME280;22716;51.556;5.080;2023-07-16T07:12:16;100464.44;;;19.74;78.98
36748;BME280;22716;51.556;5.080;2023-07-16T07:14:46;100467.16;;;19.56;79.46
36748;BME280;22716;51.556;5.080;2023-07-16T07:17:15;100468.06;;;19.55;79.64
36748;BME280;22716;51.556;5.080;2023-07-16T07:19:43;100464.75;;;19.52;79.46
36748;BME280;22716;51.556;5.080;2023-07-16T07:22:12;100470.06;;;19.68;79.45
36748;BME280;22716;51.556;5.080;2023-07-16T07:24:43;100467.53;;;19.82;79.10
36748;BME280;22716;51.556;5.080;2023-07-16T07:27:12;100470.97;;;19.84;78.29
36748;BME280;22716;51.556;5.080;2023-07-16T07:29:41;100471.59;;;19.89;78.64
36748;BME280;22716;51.556;5.080;2023-07-16T07:32:12;100471.47;;;19.90;78.80
36748;BME280;22716;51.556;5.080;2023-07-16T07:34:40;100471.16;;;19.96;78.49
36748;BME280;22716;51.556;5.080;2023-07-16T07:37:09;100470.66;;;19.90;78.44
36748;BME280;22716;51.556;5.080;2023-07-16T07:39:37;100479.75;;;20.01;77.89
36748;BME280;22716;51.556;5.080;2023-07-16T07:42:09;100477.34;;;20.12;77.58
36748;BME280;22716;51.556;5.080;2023-07-16T07:44:38;100474.53;;;20.16;78.05
36748;BME280;22716;51.556;5.080;2023-07-16T07:47:07;100471.00;;;20.15;78.34
36748;BME280;22716;51.556;5.080;2023-07-16T07:49:36;100481.47;;;20.18;77.98
36748;BME280;22716;51.556;5.080;2023-07-16T07:52:06;100486.91;;;20.17;77.77
36748;BME280;22716;51.556;5.080;2023-07-16T07:54:35;100485.25;;;20.14;78.17
36748;BME280;22716;51.556;5.080;2023-07-16T07:57:05;100498.84;;;20.25;77.85
36748;BME280;22716;51.556;5.080;2023-07-16T07:59:36;100479.19;;;20.43;77.78
36748;BME280;22716;51.556;5.080;2023-07-16T08:02:05;100488.19;;;20.56;77.45
36748;BME280;22716;51.556;5.080;2023-07-16T08:04:34;100464.13;;;20.58;76.65
36748;BME280;22716;51.556;5.080;2023-07-16T08:07:03;100490.06;;;20.70;76.93
36748;BME280;22716;51.556;5.080;2023-07-16T08:09:32;100484.16;;;20.65;77.29
36748;BME280;22716;51.556;5.080;2023-07-16T08:12:00;100501.56;;;20.71;76.94
36748;BME280;22716;51.556;5.080;2023-07-16T08:14:29;100500.63;;;20.72;76.39
36748;BME280;22716;51.556;5.080;2023-07-16T08:17:03;100496.25;;;20.71;76.55
36748;BME280;22716;51.556;5.080;2023-07-16T08:19:32;100492.72;;;20.70;76.72
36748;BME280;22716;51.556;5.080;2023-07-16T08:22:00;100498.50;;;20.62;77.22
36748;BME280;22716;51.556;5.080;2023-07-16T08:24:29;100494.22;;;20.60;77.29
36748;BME280;22716;51.556;5.080;2023-07-16T08:26:58;100508.28;;;20.62;76.70
36748;BME280;22716;51.556;5.080;2023-07-16T08:29:26;100502.38;;;20.57;77.25
36748;BME280;22716;51.556;5.080;2023-07-16T08:31:55;100493.34;;;20.59;76.93
36748;BME280;22716;51.556;5.080;2023-07-16T08:34:26;100477.47;;;20.42;76.36
36748;BME280;22716;51.556;5.080;2023-07-16T08:36:55;100507.06;;;20.67;76.42
36748;BME280;22716;51.556;5.080;2023-07-16T08:39:23;100514.13;;;20.68;77.69
36748;BME280;22716;51.556;5.080;2023-07-16T08:41:52;100513.09;;;20.71;78.01
36748;BME280;22716;51.556;5.080;2023-07-16T08:44:21;100518.31;;;20.73;77.84
36748;BME280;22716;51.556;5.080;2023-07-16T08:46:50;100515.47;;;20.76;77.90
36748;BME280;22716;51.556;5.080;2023-07-16T08:49:19;100519.00;;;20.76;77.38
36748;BME280;22716;51.556;5.080;2023-07-16T08:51:54;100520.91;;;20.74;77.79
36748;BME280;22716;51.556;5.080;2023-07-16T08:54:23;100522.00;;;20.86;78.36
36748;BME280;22716;51.556;5.080;2023-07-16T08:56:53;100521.22;;;20.84;77.53
36748;BME280;22716;51.556;5.080;2023-07-16T08:59:22;100531.44;;;20.76;77.61
36748;BME280;22716;51.556;5.080;2023-07-16T09:01:50;100530.00;;;20.70;78.50
36748;BME280;22716;51.556;5.080;2023-07-16T09:04:19;100532.47;;;20.73;77.32
36748;BME280;22716;51.556;5.080;2023-07-16T09:06:47;100537.50;;;20.63;78.57
36748;BME280;22716;51.556;5.080;2023-07-16T09:09:23;100529.06;;;20.55;78.23
36748;BME280;22716;51.556;5.080;2023-07-16T09:11:54;100534.53;;;20.52;78.39
36748;BME280;22716;51.556;5.080;2023-07-16T09:14:23;100535.25;;;20.56;78.47
36748;BME280;22716;51.556;5.080;2023-07-16T09:16:52;100535.59;;;20.65;78.40
36748;BME280;22716;51.556;5.080;2023-07-16T09:19:21;100535.81;;;20.77;78.11
36748;BME280;22716;51.556;5.080;2023-07-16T09:21:50;100544.22;;;20.85;77.73
36748;BME280;22716;51.556;5.080;2023-07-16T09:24:22;100538.91;;;20.85;76.62
36748;BME280;22716;51.556;5.080;2023-07-16T09:26:52;100536.69;;;20.93;76.77
36748;BME280;22716;51.556;5.080;2023-07-16T09:29:21;100544.22;;;21.00;76.55
36748;BME280;22716;51.556;5.080;2023-07-16T09:31:53;100547.06;;;21.13;75.77
36748;BME280;22716;51.556;5.080;2023-07-16T09:34:22;100539.47;;;21.21;75.85
36748;BME280;22716;51.556;5.080;2023-07-16T09:36:51;100551.94;;;21.20;75.53
36748;BME280;22716;51.556;5.080;2023-07-16T09:39:22;100546.53;;;21.22;75.44
36748;BME280;22716;51.556;5.080;2023-07-16T09:41:52;100553.84;;;21.18;76.47
36748;BME280;22716;51.556;5.080;2023-07-16T09:44:22;100548.41;;;21.20;75.62
36748;BME280;22716;51.556;5.080;2023-07-16T09:46:50;100547.47;;;21.21;76.22
36748;BME280;22716;51.556;5.080;2023-07-16T09:49:19;100553.13;;;21.31;75.67
36748;BME280;22716;51.556;5.080;2023-07-16T09:51:48;100555.50;;;21.35;75.49
36748;BME280;22716;51.556;5.080;2023-07-16T09:54:24;100556.06;;;21.40;75.42
36748;BME280;22716;51.556;5.080;2023-07-16T09:56:56;100550.00;;;21.38;74.26
36748;BME280;22716;51.556;5.080;2023-07-16T09:59:29;100562.00;;;21.45;74.33
36748;BME280;22716;51.556;5.080;2023-07-16T10:01:59;100559.94;;;21.64;73.67
36748;BME280;22716;51.556;5.080;2023-07-16T10:04:37;100568.31;;;21.72;73.22
36748;BME280;22716;51.556;5.080;2023-07-16T10:07:17;100586.63;;;21.78;73.39
36748;BME280;22716;51.556;5.080;2023-07-16T10:09:54;100579.00;;;21.72;73.40
36748;BME280;22716;51.556;5.080;2023-07-16T10:12:25;100587.16;;;21.69;74.30
36748;BME280;22716;51.556;5.080;2023-07-16T10:14:59;100594.16;;;21.72;74.32
36748;BME280;22716;51.556;5.080;2023-07-16T10:17:31;100598.69;;;21.70;74.86
36748;BME280;22716;51.556;5.080;2023-07-16T10:20:08;100589.19;;;21.66;74.16
36748;BME280;22716;51.556;5.080;2023-07-16T10:22:40;100603.16;;;21.55;74.33
36748;BME280;22716;51.556;5.080;2023-07-16T10:25:22;100605.59;;;21.44;74.64
36748;BME280;22716;51.556;5.080;2023-07-16T10:27:53;100608.03;;;21.33;75.09
36748;BME280;22716;51.556;5.080;2023-07-16T10:30:22;100614.47;;;21.29;75.14
36748;BME280;22716;51.556;5.080;2023-07-16T10:32:51;100618.88;;;21.14;74.91
36748;BME280;22716;51.556;5.080;2023-07-16T10:35:21;100620.41;;;21.03;75.29
36748;BME280;22716;51.556;5.080;2023-07-16T10:37:50;100616.81;;;21.04;76.08
36748;BME280;22716;51.556;5.080;2023-07-16T10:40:21;100618.19;;;21.11;76.10
36748;BME280;22716;51.556;5.080;2023-07-16T10:42:52;100621.13;;;21.22;75.79
36748;BME280;22716;51.556;5.080;2023-07-16T10:45:21;100631.84;;;21.20;75.71
36748;BME280;22716;51.556;5.080;2023-07-16T10:47:54;100624.91;;;21.18;75.22
36748;BME280;22716;51.556;5.080;2023-07-16T10:50:23;100627.63;;;21.16;75.54
36748;BME280;22716;51.556;5.080;2023-07-16T10:52:52;100629.53;;;21.14;74.83
36748;BME280;22716;51.556;5.080;2023-07-16T10:55:26;100630.59;;;21.12;75.85
36748;BME280;22716;51.556;5.080;2023-07-16T10:57:58;100641.25;;;21.12;75.55
36748;BME280;22716;51.556;5.080;2023-07-16T11:00:26;100644.16;;;21.07;76.72
36748;BME280;22716;51.556;5.080;2023-07-16T11:02:55;100639.81;;;21.05;77.21
36748;BME280;22716;51.556;5.080;2023-07-16T11:05:24;100649.34;;;21.10;77.47
36748;BME280;22716;51.556;5.080;2023-07-16T11:07:55;100661.94;;;21.07;78.24
36748;BME280;22716;51.556;5.080;2023-07-16T11:10:28;100662.50;;;20.96;79.47
36748;BME280;22716;51.556;5.080;2023-07-16T11:12:57;100664.56;;;20.91;80.65
36748;BME280;22716;51.556;5.080;2023-07-16T11:15:31;100657.81;;;21.01;81.53
36748;BME280;22716;51.556;5.080;2023-07-16T11:18:01;100663.91;;;21.03;81.03
36748;BME280;22716;51.556;5.080;2023-07-16T11:20:30;100668.13;;;21.07;81.53
36748;BME280;22716;51.556;5.080;2023-07-16T11:23:10;100659.59;;;21.01;81.04
36748;BME280;22716;51.556;5.080;2023-07-16T11:25:46;100662.84;;;20.90;80.79
36748;BME280;22716;51.556;5.080;2023-07-16T11:28:15;100680.19;;;20.82;81.92
36748;BME280;22716;51.556;5.080;2023-07-16T11:30:43;100676.88;;;20.78;84.61
36748;BME280;22716;51.556;5.080;2023-07-16T11:33:13;100675.84;;;20.81;87.46
36748;BME280;22716;51.556;5.080;2023-07-16T11:35:41;100684.69;;;20.81;88.13
36748;BME280;22716;51.556;5.080;2023-07-16T11:38:11;100681.66;;;20.72;90.32
36748;BME280;22716;51.556;5.080;2023-07-16T11:40:43;100693.41;;;20.67;90.93
36748;BME280;22716;51.556;5.080;2023-07-16T11:43:12;100693.84;;;20.76;91.76
36748;BME280;22716;51.556;5.080;2023-07-16T11:45:47;100690.28;;;20.92;91.15
36748;BME280;22716;51.556;5.080;2023-07-16T11:48:16;100702.91;;;21.04;89.93
36748;BME280;22716;51.556;5.080;2023-07-16T11:50:45;100687.91;;;21.19;89.15
36748;BME280;22716;51.556;5.080;2023-07-16T11:53:16;100691.41;;;21.19;88.71
36748;BME280;22716;51.556;5.080;2023-07-16T11:55:48;100691.59;;;21.32;88.21
36748;BME280;22716;51.556;5.080;2023-07-16T11:58:16;100695.88;;;21.50;86.82
36748;BME280;22716;51.556;5.080;2023-07-16T12:00:45;100688.59;;;21.68;86.16
36748;BME280;22716;51.556;5.080;2023-07-16T12:03:13;100692.81;;;21.72;85.70
36748;BME280;22716;51.556;5.080;2023-07-16T12:05:43;100702.22;;;21.63;85.53
36748;BME280;22716;51.556;5.080;2023-07-16T12:08:14;100693.72;;;21.57;85.08
36748;BME280;22716;51.556;5.080;2023-07-16T12:10:47;100691.63;;;21.62;85.32
36748;BME280;22716;51.556;5.080;2023-07-16T12:13:17;100695.66;;;21.69;83.30
36748;BME280;22716;51.556;5.080;2023-07-16T12:15:48;100690.16;;;21.72;83.44
36748;BME280;22716;51.556;5.080;2023-07-16T12:18:16;100686.16;;;21.95;83.32
36748;BME280;22716;51.556;5.080;2023-07-16T12:20:52;100679.97;;;22.08;81.55
36748;BME280;22716;51.556;5.080;2023-07-16T12:23:20;100688.38;;;22.16;80.76
36748;BME280;22716;51.556;5.080;2023-07-16T12:25:52;100685.25;;;22.24;80.66
36748;BME280;22716;51.556;5.080;2023-07-16T12:28:20;100679.91;;;22.24;79.51
36748;BME280;22716;51.556;5.080;2023-07-16T12:30:49;100690.59;;;22.38;77.43
36748;BME280;22716;51.556;5.080;2023-07-16T12:33:18;100703.56;;;22.58;76.30
36748;BME280;22716;51.556;5.080;2023-07-16T12:35:46;100688.78;;;22.81;75.08
36748;BME280;22716;51.556;5.080;2023-07-16T12:38:15;100694.13;;;22.81;74.85
36748;BME280;22716;51.556;5.080;2023-07-16T12:40:44;100699.59;;;22.79;74.66
36748;BME280;22716;51.556;5.080;2023-07-16T12:43:16;100697.97;;;22.77;73.25
36748;BME280;22716;51.556;5.080;2023-07-16T12:45:44;100697.28;;;22.87;72.37
36748;BME280;22716;51.556;5.080;2023-07-16T12:48:13;100696.31;;;23.03;70.50
36748;BME280;22716;51.556;5.080;2023-07-16T12:50:41;100694.78;;;23.13;70.24
36748;BME280;22716;51.556;5.080;2023-07-16T12:53:10;100699.06;;;23.15;69.81
36748;BME280;22716;51.556;5.080;2023-07-16T12:55:40;100698.56;;;23.23;69.95
36748;BME280;22716;51.556;5.080;2023-07-16T12:58:09;100702.69;;;23.14;69.59
36748;BME280;22716;51.556;5.080;2023-07-16T13:00:40;100705.63;;;23.24;68.58
36748;BME280;22716;51.556;5.080;2023-07-16T13:03:09;100696.16;;;23.32;68.64
36748;BME280;22716;51.556;5.080;2023-07-16T13:05:42;100701.88;;;23.67;67.65